sensor_id;sensor_type;location;lat;lon;timestamp;temperature;humidity
34640;DHT22;22600;48.186;11.526;2023-08-17T00:01:24;26.20;59.80
34640;DHT22;22600;48.186;11.526;2023-08-17T00:03:50;26.20;59.90
34640;DHT22;22600;48.186;11.526;2023-08-17T00:06:15;26.20;59.90
34640;DHT22;22600;48.186;11.526;2023-08-17T00:08:41;26.20;59.80
34640;DHT22;22600;48.186;11.526;2023-08-17T00:11:07;26.20;59.80
34640;DHT22;22600;48.186;11.526;2023-08-17T00:13:32;26.20;59.80
34640;DHT22;22600;48.186;11.526;2023-08-17T00:15:57;26.20;59.90
34640;DHT22;22600;48.186;11.526;2023-08-17T00:18:23;26.20;59.90
34640;DHT22;22600;48.186;11.526;2023-08-17T00:20:48;26.20;59.90
34640;DHT22;22600;48.186;11.526;2023-08-17T00:23:14;26.20;60.00
34640;DHT22;22600;48.186;11.526;2023-08-17T00:25:39;26.20;60.10
34640;DHT22;22600;48.186;11.526;2023-08-17T00:28:05;26.20;60.30
34640;DHT22;22600;48.186;11.526;2023-08-17T00:30:30;26.20;60.30
34640;DHT22;22600;48.186;11.526;2023-08-17T00:32:56;26.20;60.30
34640;DHT22;22600;48.186;11.526;2023-08-17T00:35:21;26.20;60.50
34640;DHT22;22600;48.186;11.526;2023-08-17T00:37:47;26.20;60.50
34640;DHT22;22600;48.186;11.526;2023-08-17T00:40:12;26.10;60.50
34640;DHT22;22600;48.186;11.526;2023-08-17T00:42:37;26.20;60.60
34640;DHT22;22600;48.186;11.526;2023-08-17T00:45:03;26.20;60.70
34640;DHT22;22600;48.186;11.526;2023-08-17T00:47:29;26.20;60.70
34640;DHT22;22600;48.186;11.526;2023-08-17T00:49:55;26.20;60.70
34640;DHT22;22600;48.186;11.526;2023-08-17T00:54:47;26.20;60.80
34640;DHT22;22600;48.186;11.526;2023-08-17T00:57:12;26.20;60.70
34640;DHT22;22600;48.186;11.526;2023-08-17T00:59:38;26.20;60.70
34640;DHT22;22600;48.186;11.526;2023-08-17T01:02:03;26.20;60.60
34640;DHT22;22600;48.186;11.526;2023-08-17T01:04:29;26.20;60.60
34640;DHT22;22600;48.186;11.526;2023-08-17T01:06:56;26.20;60.70
34640;DHT22;22600;48.186;11.526;2023-08-17T01:11:49;26.20;60.70
34640;DHT22;22600;48.186;11.526;2023-08-17T01:14:36;26.20;60.70
34640;DHT22;22600;48.186;11.526;2023-08-17T01:19:28;26.20;60.50
34640;DHT22;22600;48.186;11.526;2023-08-17T01:21:57;26.20;60.40
34640;DHT22;22600;48.186;11.526;2023-08-17T01:24:25;26.20;60.40
34640;DHT22;22600;48.186;11.526;2023-08-17T01:26:51;26.20;60.40
34640;DHT22;22600;48.186;11.526;2023-08-17T01:29:17;26.20;60.40
34640;DHT22;22600;48.186;11.526;2023-08-17T01:34:09;26.20;60.30
34640;DHT22;22600;48.186;11.526;2023-08-17T01:39:00;26.20;60.10
34640;DHT22;22600;48.186;11.526;2023-08-17T01:41:26;26.20;60.00
34640;DHT22;22600;48.186;11.526;2023-08-17T01:43:52;26.20;59.90
34640;DHT22;22600;48.186;11.526;2023-08-17T01:46:18;26.20;59.90
34640;DHT22;22600;48.186;11.526;2023-08-17T01:48:44;26.20;60.00
34640;DHT22;22600;48.186;11.526;2023-08-17T01:51:10;26.20;60.00
34640;DHT22;22600;48.186;11.526;2023-08-17T01:53:37;26.20;60.00
34640;DHT22;22600;48.186;11.526;2023-08-17T01:56:02;26.20;60.10
34640;DHT22;22600;48.186;11.526;2023-08-17T01:58:28;26.20;60.20
34640;DHT22;22600;48.186;11.526;2023-08-17T02:03:19;26.20;60.00
34640;DHT22;22600;48.186;11.526;2023-08-17T02:08:10;26.10;60.00
34640;DHT22;22600;48.186;11.526;2023-08-17T02:10:36;26.20;60.10
34640;DHT22;22600;48.186;11.526;2023-08-17T02:13:01;26.20;60.10
34640;DHT22;22600;48.186;11.526;2023-08-17T02:15:27;26.20;60.10
34640;DHT22;22600;48.186;11.526;2023-08-17T02:17:52;26.10;60.00
34640;DHT22;22600;48.186;11.526;2023-08-17T02:22:44;26.20;60.10
34640;DHT22;22600;48.186;11.526;2023-08-17T02:25:10;26.20;60.10
34640;DHT22;22600;48.186;11.526;2023-08-17T02:30:02;26.20;60.20
34640;DHT22;22600;48.186;11.526;2023-08-17T02:32:28;26.20;60.10
34640;DHT22;22600;48.186;11.526;2023-08-17T02:34:54;26.20;60.10
34640;DHT22;22600;48.186;11.526;2023-08-17T02:37:20;26.10;60.10
34640;DHT22;22600;48.186;11.526;2023-08-17T02:39:45;26.10;60.10
34640;DHT22;22600;48.186;11.526;2023-08-17T02:44:36;26.10;60.10
34640;DHT22;22600;48.186;11.526;2023-08-17T02:47:02;26.20;60.20
34640;DHT22;22600;48.186;11.526;2023-08-17T02:49:27;26.10;60.20
34640;DHT22;22600;48.186;11.526;2023-08-17T02:51:53;26.20;60.30
34640;DHT22;22600;48.186;11.526;2023-08-17T02:56:44;26.10;60.20
34640;DHT22;22600;48.186;11.526;2023-08-17T02:59:10;26.10;60.30
34640;DHT22;22600;48.186;11.526;2023-08-17T03:01:35;26.20;60.30
34640;DHT22;22600;48.186;11.526;2023-08-17T03:04:01;26.20;60.40
34640;DHT22;22600;48.186;11.526;2023-08-17T03:06:26;26.10;60.40
34640;DHT22;22600;48.186;11.526;2023-08-17T03:08:51;26.10;60.30
34640;DHT22;22600;48.186;11.526;2023-08-17T03:11:18;26.20;60.40
34640;DHT22;22600;48.186;11.526;2023-08-17T03:13:43;26.10;60.30
34640;DHT22;22600;48.186;11.526;2023-08-17T03:16:11;26.20;60.30
34640;DHT22;22600;48.186;11.526;2023-08-17T03:21:02;26.10;60.30
34640;DHT22;22600;48.186;11.526;2023-08-17T03:25:53;26.10;60.30
34640;DHT22;22600;48.186;11.526;2023-08-17T03:28:19;26.10;60.40
34640;DHT22;22600;48.186;11.526;2023-08-17T03:30:45;26.20;60.40
34640;DHT22;22600;48.186;11.526;2023-08-17T03:33:10;26.10;60.30
34640;DHT22;22600;48.186;11.526;2023-08-17T03:35:35;26.00;60.20
34640;DHT22;22600;48.186;11.526;2023-08-17T03:38:01;26.10;60.30
34640;DHT22;22600;48.186;11.526;2023-08-17T03:40:27;26.10;60.30
34640;DHT22;22600;48.186;11.526;2023-08-17T03:42:52;26.10;60.30
34640;DHT22;22600;48.186;11.526;2023-08-17T03:45:18;26.10;60.30
34640;DHT22;22600;48.186;11.526;2023-08-17T03:47:43;26.10;60.30
34640;DHT22;22600;48.186;11.526;2023-08-17T03:50:09;26.10;60.40
34640;DHT22;22600;48.186;11.526;2023-08-17T03:52:35;26.10;60.30
34640;DHT22;22600;48.186;11.526;2023-08-17T03:57:26;26.10;60.40
34640;DHT22;22600;48.186;11.526;2023-08-17T03:59:52;26.00;60.20
34640;DHT22;22600;48.186;11.526;2023-08-17T04:04:43;26.10;60.30
34640;DHT22;22600;48.186;11.526;2023-08-17T04:07:09;26.20;60.30
34640;DHT22;22600;48.186;11.526;2023-08-17T04:09:34;26.10;60.30
34640;DHT22;22600;48.186;11.526;2023-08-17T04:12:00;26.10;60.30
34640;DHT22;22600;48.186;11.526;2023-08-17T04:14:25;26.10;60.30
34640;DHT22;22600;48.186;11.526;2023-08-17T04:16:51;26.10;60.30
34640;DHT22;22600;48.186;11.526;2023-08-17T04:19:17;26.10;60.30
34640;DHT22;22600;48.186;11.526;2023-08-17T04:21:42;26.10;60.30
34640;DHT22;22600;48.186;11.526;2023-08-17T04:24:08;26.10;60.40
34640;DHT22;22600;48.186;11.526;2023-08-17T04:26:33;26.10;60.30
34640;DHT22;22600;48.186;11.526;2023-08-17T04:31:24;26.10;60.30
34640;DHT22;22600;48.186;11.526;2023-08-17T04:33:51;26.10;60.40
34640;DHT22;22600;48.186;11.526;2023-08-17T04:36:16;26.10;60.40
34640;DHT22;22600;48.186;11.526;2023-08-17T04:38:42;26.10;60.30
34640;DHT22;22600;48.186;11.526;2023-08-17T04:41:07;26.10;60.30
34640;DHT22;22600;48.186;11.526;2023-08-17T04:43:33;26.10;60.30
34640;DHT22;22600;48.186;11.526;2023-08-17T04:45:58;26.10;60.20
34640;DHT22;22600;48.186;11.526;2023-08-17T04:50:50;26.10;60.20
34640;DHT22;22600;48.186;11.526;2023-08-17T04:53:16;26.10;60.30
34640;DHT22;22600;48.186;11.526;2023-08-17T04:55:41;26.10;60.30
34640;DHT22;22600;48.186;11.526;2023-08-17T04:58:07;26.10;60.30
34640;DHT22;22600;48.186;11.526;2023-08-17T05:00:32;26.10;60.30
34640;DHT22;22600;48.186;11.526;2023-08-17T05:02:58;26.10;60.30
34640;DHT22;22600;48.186;11.526;2023-08-17T05:07:52;26.20;60.30
34640;DHT22;22600;48.186;11.526;2023-08-17T05:10:17;26.20;60.30
34640;DHT22;22600;48.186;11.526;2023-08-17T05:12:43;26.20;60.20
34640;DHT22;22600;48.186;11.526;2023-08-17T05:15:08;26.20;60.10
34640;DHT22;22600;48.186;11.526;2023-08-17T05:17:34;26.20;60.10
34640;DHT22;22600;48.186;11.526;2023-08-17T05:19:59;26.20;60.10
34640;DHT22;22600;48.186;11.526;2023-08-17T05:22:25;26.20;60.10
34640;DHT22;22600;48.186;11.526;2023-08-17T05:24:50;26.20;60.00
34640;DHT22;22600;48.186;11.526;2023-08-17T05:27:15;26.20;60.00
34640;DHT22;22600;48.186;11.526;2023-08-17T05:29:41;26.20;60.00
34640;DHT22;22600;48.186;11.526;2023-08-17T05:32:06;26.20;60.00
34640;DHT22;22600;48.186;11.526;2023-08-17T05:34:32;26.30;60.00
34640;DHT22;22600;48.186;11.526;2023-08-17T05:36:57;26.30;60.10
34640;DHT22;22600;48.186;11.526;2023-08-17T05:39:23;26.30;60.10
34640;DHT22;22600;48.186;11.526;2023-08-17T05:41:48;26.30;60.00
34640;DHT22;22600;48.186;11.526;2023-08-17T05:44:14;26.30;60.00
34640;DHT22;22600;48.186;11.526;2023-08-17T05:46:40;26.30;60.00
34640;DHT22;22600;48.186;11.526;2023-08-17T05:49:06;26.30;59.90
34640;DHT22;22600;48.186;11.526;2023-08-17T05:51:31;26.30;59.90
34640;DHT22;22600;48.186;11.526;2023-08-17T05:53:57;26.30;59.90
34640;DHT22;22600;48.186;11.526;2023-08-17T05:56:22;26.30;59.90
34640;DHT22;22600;48.186;11.526;2023-08-17T06:01:14;26.40;59.70
34640;DHT22;22600;48.186;11.526;2023-08-17T06:03:39;26.40;59.70
34640;DHT22;22600;48.186;11.526;2023-08-17T06:06:05;26.40;59.70
34640;DHT22;22600;48.186;11.526;2023-08-17T06:08:33;26.40;59.70
34640;DHT22;22600;48.186;11.526;2023-08-17T06:10:59;26.40;59.60
34640;DHT22;22600;48.186;11.526;2023-08-17T06:13:24;26.40;59.60
34640;DHT22;22600;48.186;11.526;2023-08-17T06:15:50;26.50;59.60
34640;DHT22;22600;48.186;11.526;2023-08-17T06:18:15;26.40;59.50
34640;DHT22;22600;48.186;11.526;2023-08-17T06:20:41;26.40;59.50
34640;DHT22;22600;48.186;11.526;2023-08-17T06:23:07;26.50;59.50
34640;DHT22;22600;48.186;11.526;2023-08-17T06:25:32;26.50;59.50
34640;DHT22;22600;48.186;11.526;2023-08-17T06:27:58;26.50;59.50
34640;DHT22;22600;48.186;11.526;2023-08-17T06:30:23;26.50;59.50
34640;DHT22;22600;48.186;11.526;2023-08-17T06:32:50;26.60;59.40
34640;DHT22;22600;48.186;11.526;2023-08-17T06:35:15;26.60;59.40
34640;DHT22;22600;48.186;11.526;2023-08-17T06:37:41;26.60;59.40
34640;DHT22;22600;48.186;11.526;2023-08-17T06:40:07;26.40;59.30
34640;DHT22;22600;48.186;11.526;2023-08-17T06:42:33;26.60;59.40
34640;DHT22;22600;48.186;11.526;2023-08-17T06:44:58;26.60;59.40
34640;DHT22;22600;48.186;11.526;2023-08-17T06:47:23;26.70;59.50
34640;DHT22;22600;48.186;11.526;2023-08-17T06:49:49;26.60;59.30
34640;DHT22;22600;48.186;11.526;2023-08-17T06:52:14;26.70;59.40
34640;DHT22;22600;48.186;11.526;2023-08-17T06:54:40;26.70;59.30
34640;DHT22;22600;48.186;11.526;2023-08-17T06:57:05;26.70;59.30
34640;DHT22;22600;48.186;11.526;2023-08-17T06:59:31;26.70;59.30
34640;DHT22;22600;48.186;11.526;2023-08-17T07:01:58;26.70;59.30
34640;DHT22;22600;48.186;11.526;2023-08-17T07:04:24;26.70;59.30
34640;DHT22;22600;48.186;11.526;2023-08-17T07:06:49;26.70;59.20
34640;DHT22;22600;48.186;11.526;2023-08-17T07:09:15;26.80;59.20
34640;DHT22;22600;48.186;11.526;2023-08-17T07:11:40;26.80;59.20
34640;DHT22;22600;48.186;11.526;2023-08-17T07:14:06;26.80;59.20
34640;DHT22;22600;48.186;11.526;2023-08-17T07:16:31;26.80;59.10
34640;DHT22;22600;48.186;11.526;2023-08-17T07:18:57;26.80;59.10
34640;DHT22;22600;48.186;11.526;2023-08-17T07:21:22;26.80;59.10
34640;DHT22;22600;48.186;11.526;2023-08-17T07:23:48;26.80;59.10
34640;DHT22;22600;48.186;11.526;2023-08-17T07:26:14;26.80;59.10
34640;DHT22;22600;48.186;11.526;2023-08-17T07:28:40;26.80;59.10
34640;DHT22;22600;48.186;11.526;2023-08-17T07:31:05;26.90;59.10
34640;DHT22;22600;48.186;11.526;2023-08-17T07:35:57;26.90;59.00
34640;DHT22;22600;48.186;11.526;2023-08-17T07:38:23;26.90;59.10
34640;DHT22;22600;48.186;11.526;2023-08-17T07:40:49;26.90;59.00
34640;DHT22;22600;48.186;11.526;2023-08-17T07:43:14;26.90;59.10
34640;DHT22;22600;48.186;11.526;2023-08-17T07:45:40;26.90;59.00
34640;DHT22;22600;48.186;11.526;2023-08-17T07:48:05;26.90;59.00
34640;DHT22;22600;48.186;11.526;2023-08-17T07:50:31;26.90;59.00
34640;DHT22;22600;48.186;11.526;2023-08-17T07:52:56;27.00;59.00
34640;DHT22;22600;48.186;11.526;2023-08-17T07:55:22;26.80;58.90
34640;DHT22;22600;48.186;11.526;2023-08-17T07:57:47;27.00;59.00
34640;DHT22;22600;48.186;11.526;2023-08-17T08:00:13;27.00;58.90
34640;DHT22;22600;48.186;11.526;2023-08-17T08:02:38;27.00;58.90
34640;DHT22;22600;48.186;11.526;2023-08-17T08:05:04;26.90;58.90
34640;DHT22;22600;48.186;11.526;2023-08-17T08:07:29;27.00;59.00
34640;DHT22;22600;48.186;11.526;2023-08-17T08:09:55;27.00;58.90
34640;DHT22;22600;48.186;11.526;2023-08-17T08:12:20;27.00;58.80
34640;DHT22;22600;48.186;11.526;2023-08-17T08:14:46;27.00;58.80
34640;DHT22;22600;48.186;11.526;2023-08-17T08:17:11;27.00;58.90
34640;DHT22;22600;48.186;11.526;2023-08-17T08:22:03;27.00;58.80
34640;DHT22;22600;48.186;11.526;2023-08-17T08:24:28;27.00;58.80
34640;DHT22;22600;48.186;11.526;2023-08-17T08:26:59;27.00;58.70
34640;DHT22;22600;48.186;11.526;2023-08-17T08:31:50;27.10;58.80
34640;DHT22;22600;48.186;11.526;2023-08-17T08:34:16;27.40;58.90
34640;DHT22;22600;48.186;11.526;2023-08-17T08:36:41;27.10;58.70
34640;DHT22;22600;48.186;11.526;2023-08-17T08:39:06;27.10;58.80
34640;DHT22;22600;48.186;11.526;2023-08-17T08:41:33;27.10;58.80
34640;DHT22;22600;48.186;11.526;2023-08-17T08:43:58;27.10;58.70
34640;DHT22;22600;48.186;11.526;2023-08-17T08:46:24;27.10;58.80
34640;DHT22;22600;48.186;11.526;2023-08-17T08:48:51;27.10;58.70
34640;DHT22;22600;48.186;11.526;2023-08-17T08:51:19;27.10;58.70
34640;DHT22;22600;48.186;11.526;2023-08-17T08:53:47;27.10;58.60
34640;DHT22;22600;48.186;11.526;2023-08-17T08:56:15;27.10;58.60
34640;DHT22;22600;48.186;11.526;2023-08-17T08:58:44;23.20;56.40
34640;DHT22;22600;48.186;11.526;2023-08-17T09:01:10;27.10;58.60
34640;DHT22;22600;48.186;11.526;2023-08-17T09:03:36;27.10;58.60
34640;DHT22;22600;48.186;11.526;2023-08-17T09:06:01;27.10;58.60
34640;DHT22;22600;48.186;11.526;2023-08-17T09:08:29;27.10;58.60
34640;DHT22;22600;48.186;11.526;2023-08-17T09:10:54;27.10;58.50
34640;DHT22;22600;48.186;11.526;2023-08-17T09:13:20;27.10;58.50
34640;DHT22;22600;48.186;11.526;2023-08-17T09:15:45;27.10;58.50
34640;DHT22;22600;48.186;11.526;2023-08-17T09:18:11;27.10;58.40
34640;DHT22;22600;48.186;11.526;2023-08-17T09:20:40;27.10;58.40
34640;DHT22;22600;48.186;11.526;2023-08-17T09:25:32;27.10;58.40
34640;DHT22;22600;48.186;11.526;2023-08-17T09:28:02;27.10;58.40
34640;DHT22;22600;48.186;11.526;2023-08-17T09:30:31;27.10;58.40
34640;DHT22;22600;48.186;11.526;2023-08-17T09:32:57;27.10;58.50
34640;DHT22;22600;48.186;11.526;2023-08-17T09:35:26;27.10;58.50
34640;DHT22;22600;48.186;11.526;2023-08-17T09:37:56;27.10;58.50
34640;DHT22;22600;48.186;11.526;2023-08-17T09:40:25;27.10;58.50
34640;DHT22;22600;48.186;11.526;2023-08-17T09:42:51;27.10;58.50
34640;DHT22;22600;48.186;11.526;2023-08-17T09:45:17;27.10;58.60
34640;DHT22;22600;48.186;11.526;2023-08-17T09:47:42;27.10;58.60
34640;DHT22;22600;48.186;11.526;2023-08-17T09:50:08;27.20;58.70
34640;DHT22;22600;48.186;11.526;2023-08-17T09:52:38;27.10;58.70
34640;DHT22;22600;48.186;11.526;2023-08-17T09:55:03;27.10;58.70
34640;DHT22;22600;48.186;11.526;2023-08-17T09:57:30;27.10;58.70
34640;DHT22;22600;48.186;11.526;2023-08-17T09:59:55;27.10;58.70
34640;DHT22;22600;48.186;11.526;2023-08-17T10:02:22;27.10;58.70
34640;DHT22;22600;48.186;11.526;2023-08-17T10:04:52;27.10;58.70
34640;DHT22;22600;48.186;11.526;2023-08-17T10:07:18;27.10;58.70
34640;DHT22;22600;48.186;11.526;2023-08-17T10:09:45;27.10;58.80
34640;DHT22;22600;48.186;11.526;2023-08-17T10:12:15;27.10;58.70
34640;DHT22;22600;48.186;11.526;2023-08-17T10:14:42;27.10;58.70
34640;DHT22;22600;48.186;11.526;2023-08-17T10:17:12;27.10;58.80
34640;DHT22;22600;48.186;11.526;2023-08-17T10:19:43;27.10;58.90
34640;DHT22;22600;48.186;11.526;2023-08-17T10:22:18;27.00;58.80
34640;DHT22;22600;48.186;11.526;2023-08-17T10:24:45;27.00;58.80
34640;DHT22;22600;48.186;11.526;2023-08-17T10:27:10;27.00;59.00
34640;DHT22;22600;48.186;11.526;2023-08-17T10:29:38;27.00;59.20
34640;DHT22;22600;48.186;11.526;2023-08-17T10:32:05;27.00;59.10
34640;DHT22;22600;48.186;11.526;2023-08-17T10:34:30;27.00;59.10
34640;DHT22;22600;48.186;11.526;2023-08-17T10:36:56;27.00;59.10
34640;DHT22;22600;48.186;11.526;2023-08-17T10:39:32;27.00;59.10
34640;DHT22;22600;48.186;11.526;2023-08-17T10:41:59;27.00;59.20
34640;DHT22;22600;48.186;11.526;2023-08-17T10:47:23;27.00;59.20
34640;DHT22;22600;48.186;11.526;2023-08-17T10:52:15;27.00;59.30
34640;DHT22;22600;48.186;11.526;2023-08-17T10:54:49;26.90;59.40
34640;DHT22;22600;48.186;11.526;2023-08-17T10:57:35;26.90;59.40
34640;DHT22;22600;48.186;11.526;2023-08-17T11:00:13;27.00;59.50
34640;DHT22;22600;48.186;11.526;2023-08-17T11:02:39;26.90;59.50
34640;DHT22;22600;48.186;11.526;2023-08-17T11:05:05;26.90;59.50
34640;DHT22;22600;48.186;11.526;2023-08-17T11:07:40;26.90;59.50
34640;DHT22;22600;48.186;11.526;2023-08-17T11:12:44;26.90;59.60
34640;DHT22;22600;48.186;11.526;2023-08-17T11:15:10;26.90;59.70
34640;DHT22;22600;48.186;11.526;2023-08-17T11:17:35;26.90;59.70
34640;DHT22;22600;48.186;11.526;2023-08-17T11:20:01;26.90;59.70
34640;DHT22;22600;48.186;11.526;2023-08-17T11:22:27;26.90;59.80
34640;DHT22;22600;48.186;11.526;2023-08-17T11:24:53;26.90;59.80
34640;DHT22;22600;48.186;11.526;2023-08-17T11:27:18;26.90;59.90
34640;DHT22;22600;48.186;11.526;2023-08-17T11:29:45;26.90;60.00
34640;DHT22;22600;48.186;11.526;2023-08-17T11:32:10;26.90;60.00
34640;DHT22;22600;48.186;11.526;2023-08-17T11:34:36;26.80;59.90
34640;DHT22;22600;48.186;11.526;2023-08-17T11:37:02;26.90;60.00
34640;DHT22;22600;48.186;11.526;2023-08-17T11:39:27;26.90;60.10
34640;DHT22;22600;48.186;11.526;2023-08-17T11:41:57;26.80;60.00
34640;DHT22;22600;48.186;11.526;2023-08-17T11:44:24;26.80;60.10
34640;DHT22;22600;48.186;11.526;2023-08-17T11:46:49;26.80;60.10
34640;DHT22;22600;48.186;11.526;2023-08-17T11:49:16;26.80;60.20
34640;DHT22;22600;48.186;11.526;2023-08-17T11:51:42;26.80;60.30
34640;DHT22;22600;48.186;11.526;2023-08-17T11:54:07;26.80;60.30
34640;DHT22;22600;48.186;11.526;2023-08-17T11:56:33;26.80;60.30
34640;DHT22;22600;48.186;11.526;2023-08-17T11:58:59;26.80;60.30
34640;DHT22;22600;48.186;11.526;2023-08-17T12:01:33;26.80;60.20
34640;DHT22;22600;48.186;11.526;2023-08-17T12:04:00;26.80;60.20
34640;DHT22;22600;48.186;11.526;2023-08-17T12:06:25;26.80;60.30
34640;DHT22;22600;48.186;11.526;2023-08-17T12:08:51;26.80;60.30
34640;DHT22;22600;48.186;11.526;2023-08-17T12:11:16;26.80;60.30
34640;DHT22;22600;48.186;11.526;2023-08-17T12:13:48;26.80;60.40
34640;DHT22;22600;48.186;11.526;2023-08-17T12:16:14;26.80;60.40
34640;DHT22;22600;48.186;11.526;2023-08-17T12:18:40;26.80;60.40
34640;DHT22;22600;48.186;11.526;2023-08-17T12:21:08;26.70;60.30
34640;DHT22;22600;48.186;11.526;2023-08-17T12:23:34;26.80;60.40
34640;DHT22;22600;48.186;11.526;2023-08-17T12:25:59;26.80;60.40
34640;DHT22;22600;48.186;11.526;2023-08-17T12:28:25;26.70;60.40
34640;DHT22;22600;48.186;11.526;2023-08-17T12:30:57;26.70;60.40
34640;DHT22;22600;48.186;11.526;2023-08-17T12:33:23;26.70;60.40
34640;DHT22;22600;48.186;11.526;2023-08-17T12:38:14;26.80;60.40
34640;DHT22;22600;48.186;11.526;2023-08-17T12:40:40;25.30;59.30
34640;DHT22;22600;48.186;11.526;2023-08-17T12:43:05;26.70;60.30
34640;DHT22;22600;48.186;11.526;2023-08-17T12:45:31;26.70;60.20
34640;DHT22;22600;48.186;11.526;2023-08-17T12:47:56;26.70;60.20
34640;DHT22;22600;48.186;11.526;2023-08-17T12:50:22;26.70;60.10
34640;DHT22;22600;48.186;11.526;2023-08-17T12:52:47;26.70;60.00
34640;DHT22;22600;48.186;11.526;2023-08-17T12:55:13;26.70;60.00
34640;DHT22;22600;48.186;11.526;2023-08-17T12:57:38;26.70;60.00
34640;DHT22;22600;48.186;11.526;2023-08-17T13:00:04;26.70;60.00
34640;DHT22;22600;48.186;11.526;2023-08-17T13:02:29;26.70;60.00
34640;DHT22;22600;48.186;11.526;2023-08-17T13:04:55;26.70;60.00
34640;DHT22;22600;48.186;11.526;2023-08-17T13:07:20;26.70;60.00
34640;DHT22;22600;48.186;11.526;2023-08-17T13:09:46;26.70;60.00
34640;DHT22;22600;48.186;11.526;2023-08-17T13:12:12;26.70;60.00
34640;DHT22;22600;48.186;11.526;2023-08-17T13:14:37;26.70;60.00
34640;DHT22;22600;48.186;11.526;2023-08-17T13:17:03;26.70;59.90
34640;DHT22;22600;48.186;11.526;2023-08-17T13:19:28;26.70;59.90
34640;DHT22;22600;48.186;11.526;2023-08-17T13:21:54;26.70;59.80
34640;DHT22;22600;48.186;11.526;2023-08-17T13:24:19;26.70;59.80
34640;DHT22;22600;48.186;11.526;2023-08-17T13:26:45;26.70;59.80
34640;DHT22;22600;48.186;11.526;2023-08-17T13:29:10;26.70;59.90
34640;DHT22;22600;48.186;11.526;2023-08-17T13:31:36;26.70;59.80
34640;DHT22;22600;48.186;11.526;2023-08-17T13:34:01;26.70;59.70
34640;DHT22;22600;48.186;11.526;2023-08-17T13:36:27;26.70;59.60
34640;DHT22;22600;48.186;11.526;2023-08-17T13:38:55;26.70;59.60
34640;DHT22;22600;48.186;11.526;2023-08-17T13:41:20;26.70;59.50
34640;DHT22;22600;48.186;11.526;2023-08-17T13:43:47;26.70;59.50
34640;DHT22;22600;48.186;11.526;2023-08-17T13:46:12;26.70;59.40
34640;DHT22;22600;48.186;11.526;2023-08-17T13:48:38;26.70;59.40
34640;DHT22;22600;48.186;11.526;2023-08-17T13:51:04;26.70;59.40
34640;DHT22;22600;48.186;11.526;2023-08-17T13:53:29;26.70;59.40
34640;DHT22;22600;48.186;11.526;2023-08-17T13:55:55;26.70;59.20
34640;DHT22;22600;48.186;11.526;2023-08-17T13:58:20;26.70;59.10
34640;DHT22;22600;48.186;11.526;2023-08-17T14:00:46;26.70;59.00
34640;DHT22;22600;48.186;11.526;2023-08-17T14:05:38;26.70;58.80
34640;DHT22;22600;48.186;11.526;2023-08-17T14:08:03;26.70;58.80
34640;DHT22;22600;48.186;11.526;2023-08-17T14:10:29;26.70;58.80
34640;DHT22;22600;48.186;11.526;2023-08-17T14:12:55;26.70;58.70
34640;DHT22;22600;48.186;11.526;2023-08-17T14:15:20;26.60;58.50
34640;DHT22;22600;48.186;11.526;2023-08-17T14:17:46;26.60;58.30
34640;DHT22;22600;48.186;11.526;2023-08-17T14:20:12;26.60;57.90
34640;DHT22;22600;48.186;11.526;2023-08-17T14:22:37;26.60;57.70
34640;DHT22;22600;48.186;11.526;2023-08-17T14:25:03;26.60;57.40
34640;DHT22;22600;48.186;11.526;2023-08-17T14:27:28;26.60;57.50
34640;DHT22;22600;48.186;11.526;2023-08-17T14:29:54;26.60;57.80
34640;DHT22;22600;48.186;11.526;2023-08-17T14:32:19;26.60;58.30
34640;DHT22;22600;48.186;11.526;2023-08-17T14:34:45;26.60;58.60
34640;DHT22;22600;48.186;11.526;2023-08-17T14:37:10;26.60;58.80
34640;DHT22;22600;48.186;11.526;2023-08-17T14:39:36;26.70;58.90
34640;DHT22;22600;48.186;11.526;2023-08-17T14:42:01;26.70;58.90
34640;DHT22;22600;48.186;11.526;2023-08-17T14:44:27;26.60;58.70
34640;DHT22;22600;48.186;11.526;2023-08-17T14:46:52;26.70;58.70
34640;DHT22;22600;48.186;11.526;2023-08-17T14:49:17;26.70;58.80
34640;DHT22;22600;48.186;11.526;2023-08-17T14:51:43;26.70;58.90
34640;DHT22;22600;48.186;11.526;2023-08-17T14:54:09;26.60;58.90
34640;DHT22;22600;48.186;11.526;2023-08-17T14:56:34;26.60;59.00
34640;DHT22;22600;48.186;11.526;2023-08-17T14:59:00;26.60;59.10
34640;DHT22;22600;48.186;11.526;2023-08-17T15:01:27;26.60;59.10
34640;DHT22;22600;48.186;11.526;2023-08-17T15:03:52;26.60;59.20
34640;DHT22;22600;48.186;11.526;2023-08-17T15:06:18;26.70;59.20
34640;DHT22;22600;48.186;11.526;2023-08-17T15:08:49;26.60;59.20
34640;DHT22;22600;48.186;11.526;2023-08-17T15:11:14;26.70;59.40
34640;DHT22;22600;48.186;11.526;2023-08-17T15:16:05;26.70;59.40
34640;DHT22;22600;48.186;11.526;2023-08-17T15:18:32;26.70;59.60
34640;DHT22;22600;48.186;11.526;2023-08-17T15:23:23;26.60;60.00
34640;DHT22;22600;48.186;11.526;2023-08-17T15:25:49;26.70;60.20
34640;DHT22;22600;48.186;11.526;2023-08-17T15:28:14;26.70;60.40
34640;DHT22;22600;48.186;11.526;2023-08-17T15:30:40;26.70;60.50
34640;DHT22;22600;48.186;11.526;2023-08-17T15:33:06;26.70;60.10
34640;DHT22;22600;48.186;11.526;2023-08-17T15:35:32;26.70;59.90
34640;DHT22;22600;48.186;11.526;2023-08-17T15:37:57;26.70;59.80
34640;DHT22;22600;48.186;11.526;2023-08-17T15:42:48;26.70;59.70
34640;DHT22;22600;48.186;11.526;2023-08-17T15:45:14;26.70;59.70
34640;DHT22;22600;48.186;11.526;2023-08-17T15:50:05;26.70;59.60
34640;DHT22;22600;48.186;11.526;2023-08-17T15:52:31;26.70;59.80
34640;DHT22;22600;48.186;11.526;2023-08-17T15:54:56;26.70;59.80
34640;DHT22;22600;48.186;11.526;2023-08-17T15:57:22;26.70;60.00
34640;DHT22;22600;48.186;11.526;2023-08-17T15:59:47;26.70;59.90
34640;DHT22;22600;48.186;11.526;2023-08-17T16:02:15;26.70;60.10
34640;DHT22;22600;48.186;11.526;2023-08-17T16:04:41;26.70;60.20
34640;DHT22;22600;48.186;11.526;2023-08-17T16:07:07;26.70;60.30
34640;DHT22;22600;48.186;11.526;2023-08-17T16:09:33;26.70;60.50
34640;DHT22;22600;48.186;11.526;2023-08-17T16:11:58;26.70;60.30
34640;DHT22;22600;48.186;11.526;2023-08-17T16:14:24;26.70;60.50
34640;DHT22;22600;48.186;11.526;2023-08-17T16:16:49;26.70;60.50
34640;DHT22;22600;48.186;11.526;2023-08-17T16:19:15;24.80;59.40
34640;DHT22;22600;48.186;11.526;2023-08-17T16:21:40;26.70;60.60
34640;DHT22;22600;48.186;11.526;2023-08-17T16:24:05;26.70;60.70
34640;DHT22;22600;48.186;11.526;2023-08-17T16:26:31;26.70;60.60